Time;durP1;ratioP1;P1;durP2;ratioP2;P2;SDS_P1;SDS_P2;PMS_P1;PMS_P2;Temp;Humidity;BMP_temperature;BMP_pressure;BME280_temperature;BME280_humidity;BME280_pressure;Samples;Min_cycle;Max_cycle;Signal;HPM_P1;HPM_P2
2022/10/31 00:02:04;;;;;;;17.03;9.17;;;14.50;82.00;;;;;;5032925;28;20056;-76
2022/10/31 00:04:31;;;;;;;17.67;9.10;;;14.40;82.00;;;;;;5051898;28;20057;-76
2022/10/31 00:06:59;;;;;;;17.17;8.82;;;14.40;82.20;;;;;;5051959;28;20479;-76
2022/10/31 00:09:26;;;;;;;20.30;9.30;;;14.40;82.20;;;;;;5034533;28;20057;-76
2022/10/31 00:11:53;;;;;;;18.88;9.93;;;14.40;82.20;;;;;;5053900;28;20049;-76
2022/10/31 00:14:19;;;;;;;14.67;8.57;;;14.30;82.20;;;;;;5053623;28;20524;-76
2022/10/31 00:16:46;;;;;;;17.42;9.07;;;14.30;82.30;;;;;;5053201;28;20415;-76
2022/10/31 00:19:13;;;;;;;17.77;9.32;;;14.30;82.40;;;;;;5069917;28;20049;-76
2022/10/31 00:21:40;;;;;;;16.55;8.52;;;14.30;82.50;;;;;;5072333;28;20053;-76
2022/10/31 00:24:09;;;;;;;15.82;8.13;;;14.20;82.50;;;;;;5070282;28;20053;-76
2022/10/31 00:26:36;;;;;;;14.23;7.30;;;14.20;82.60;;;;;;5070754;28;20053;-76
2022/10/31 00:29:03;;;;;;;15.27;7.38;;;14.20;82.50;;;;;;5069210;28;20045;-76
2022/10/31 00:31:30;;;;;;;15.50;8.10;;;14.20;82.50;;;;;;5051655;28;20096;-76
2022/10/31 00:33:58;;;;;;;15.32;7.55;;;14.20;82.50;;;;;;5035506;28;20053;-76
2022/10/31 00:36:27;;;;;;;15.75;7.00;;;14.10;82.40;;;;;;5058525;28;20053;-76
2022/10/31 00:38:54;;;;;;;15.20;6.70;;;14.10;82.40;;;;;;5038334;28;20052;-76
2022/10/31 00:41:23;;;;;;;14.73;7.20;;;14.10;82.50;;;;;;5070363;28;20534;-76
2022/10/31 00:43:50;;;;;;;13.63;6.80;;;14.10;82.40;;;;;;5049252;28;20053;-76
2022/10/31 00:46:17;;;;;;;12.15;6.75;;;14.10;82.40;;;;;;5033248;28;20602;-76
2022/10/31 00:48:44;;;;;;;13.40;6.53;;;14.00;82.40;;;;;;5033240;28;20049;-76
2022/10/31 00:51:11;;;;;;;13.93;6.87;;;14.00;82.30;;;;;;5050680;28;20050;-75
2022/10/31 00:53:40;;;;;;;15.35;7.00;;;14.00;82.30;;;;;;5041101;28;20138;-76
2022/10/31 00:56:07;;;;;;;14.90;7.55;;;14.00;82.30;;;;;;5036939;28;20045;-76
2022/10/31 00:58:36;;;;;;;15.65;7.65;;;14.00;82.40;;;;;;5036321;28;20128;-76
2022/10/31 01:01:03;;;;;;;14.00;7.20;;;14.00;82.40;;;;;;5053925;28;20045;-76
2022/10/31 01:03:32;;;;;;;15.03;7.10;;;13.90;82.40;;;;;;5039409;28;20606;-76
2022/10/31 01:06:01;;;;;;;14.00;7.72;;;13.90;82.40;;;;;;5032833;28;20056;-76
2022/10/31 01:08:29;;;;;;;15.77;8.10;;;13.90;82.50;;;;;;5045700;28;20044;-76
2022/10/31 01:11:06;;;;;;;15.60;7.75;;;13.90;82.50;;;;;;5048453;28;20051;-76
2022/10/31 01:13:33;;;;;;;18.83;8.48;;;13.90;82.50;;;;;;5045600;28;20540;-76
2022/10/31 01:16:05;;;;;;;17.13;8.63;;;13.90;82.50;;;;;;5052745;28;20053;-76
2022/10/31 01:18:34;;;;;;;17.08;8.25;;;13.90;82.60;;;;;;5039845;28;20103;-76
2022/10/31 01:21:03;;;;;;;18.05;8.80;;;13.90;82.70;;;;;;5072282;28;20064;-76
2022/10/31 01:23:31;;;;;;;15.23;8.35;;;13.80;82.70;;;;;;5031745;28;20049;-76
2022/10/31 01:26:03;;;;;;;15.73;8.15;;;13.80;82.70;;;;;;5053017;28;20049;-76
2022/10/31 01:28:30;;;;;;;16.90;8.20;;;13.80;82.70;;;;;;5052734;28;20446;-76
2022/10/31 01:31:03;;;;;;;16.67;8.38;;;13.70;82.70;;;;;;5051548;28;20041;-76
2022/10/31 01:33:30;;;;;;;15.95;8.52;;;13.70;82.80;;;;;;5054405;28;20071;-76
2022/10/31 01:35:57;;;;;;;15.20;8.23;;;13.70;82.80;;;;;;5037841;28;20095;-76
2022/10/31 01:38:24;;;;;;;15.18;8.30;;;13.70;82.80;;;;;;5069549;28;20593;-76
2022/10/31 01:40:51;;;;;;;15.47;8.30;;;13.60;82.90;;;;;;5070161;28;20147;-76
2022/10/31 01:43:19;;;;;;;18.10;8.38;;;13.60;82.90;;;;;;5043349;28;20147;-76
2022/10/31 01:45:51;;;;;;;15.35;8.48;;;13.60;82.90;;;;;;5033389;28;20140;-76
2022/10/31 01:48:22;;;;;;;16.73;8.40;;;13.60;83.00;;;;;;5052354;28;20124;-76
2022/10/31 01:50:52;;;;;;;19.25;8.77;;;13.60;83.00;;;;;;5051734;28;20132;-76
2022/10/31 01:53:19;;;;;;;18.10;9.10;;;13.50;83.10;;;;;;5048492;28;20049;-76
2022/10/31 01:55:47;;;;;;;16.08;9.23;;;13.60;83.10;;;;;;5032558;28;20045;-76
2022/10/31 01:58:19;;;;;;;16.80;8.60;;;13.50;83.00;;;;;;5052175;28;20124;-76
2022/10/31 02:00:50;;;;;;;16.08;8.25;;;13.50;83.10;;;;;;5067223;28;20777;-76
2022/10/31 02:03:21;;;;;;;14.05;7.70;;;13.50;83.00;;;;;;5036157;28;20060;-76
2022/10/31 02:05:48;;;;;;;13.53;7.60;;;13.50;83.10;;;;;;5069163;28;20052;-76
2022/10/31 02:08:20;;;;;;;13.13;7.53;;;13.40;83.10;;;;;;5069877;28;20045;-76
2022/10/31 02:10:50;;;;;;;14.63;8.02;;;13.40;83.10;;;;;;5051512;28;20083;-76
2022/10/31 02:13:18;;;;;;;14.02;7.97;;;13.30;83.10;;;;;;5051664;28;20590;-76
2022/10/31 02:15:50;;;;;;;15.38;8.40;;;13.30;83.20;;;;;;5051399;28;20053;-76
2022/10/31 02:18:20;;;;;;;17.10;7.70;;;13.30;83.20;;;;;;5047236;28;20107;-76
2022/10/31 02:20:58;;;;;;;15.40;7.85;;;13.30;83.20;;;;;;5027094;28;20527;-76
2022/10/31 02:23:46;;;;;;;15.50;7.78;;;13.30;83.20;;;;;;5034808;28;20534;-76
2022/10/31 02:26:32;;;;;;;14.93;7.45;;;13.30;83.20;;;;;;5048739;28;20570;-76
2022/10/31 02:29:21;;;;;;;14.55;7.45;;;13.20;83.20;;;;;;5054500;28;20059;-76
2022/10/31 02:31:59;;;;;;;15.23;7.43;;;13.20;83.20;;;;;;5032166;28;20499;-76
2022/10/31 02:34:33;;;;;;;15.43;7.63;;;13.20;83.10;;;;;;5056485;28;20054;-76
2022/10/31 02:37:07;;;;;;;16.08;7.90;;;13.10;83.10;;;;;;5032209;28;20080;-76
2022/10/31 02:39:40;;;;;;;15.10;8.38;;;13.10;83.10;;;;;;5044364;28;20075;-76
2022/10/31 02:42:15;;;;;;;14.10;7.72;;;13.10;83.20;;;;;;5045323;28;20132;-76
2022/10/31 02:44:50;;;;;;;14.30;7.47;;;13.10;83.20;;;;;;5027131;28;20045;-76
2022/10/31 02:47:23;;;;;;;15.15;7.47;;;13.10;83.20;;;;;;5048281;28;20475;-76
2022/10/31 02:49:58;;;;;;;13.30;7.30;;;13.10;83.20;;;;;;5045511;28;20055;-76
2022/10/31 02:52:28;;;;;;;16.55;7.90;;;13.10;83.20;;;;;;5034217;28;20049;-76
2022/10/31 02:55:11;;;;;;;14.07;7.90;;;13.10;83.20;;;;;;5050999;28;20538;-76
2022/10/31 02:57:40;;;;;;;12.73;7.03;;;13.10;83.20;;;;;;5034728;28;20049;-76
2022/10/31 03:00:09;;;;;;;13.27;7.38;;;13.00;83.30;;;;;;5042090;28;20048;-76
2022/10/31 03:02:53;;;;;;;14.13;7.55;;;13.00;83.30;;;;;;5054481;28;20518;-76
2022/10/31 03:05:32;;;;;;;14.35;7.25;;;13.00;83.30;;;;;;5036955;28;20538;-76
2022/10/31 03:08:06;;;;;;;14.60;7.65;;;13.00;83.30;;;;;;5033862;28;20542;-76
2022/10/31 03:10:39;;;;;;;13.37;7.77;;;13.00;83.30;;;;;;5017923;28;20514;-76
2022/10/31 03:13:11;;;;;;;13.85;7.32;;;13.00;83.30;;;;;;5029572;28;20482;-76
2022/10/31 03:15:42;;;;;;;13.80;7.95;;;12.90;83.30;;;;;;5037968;28;20136;-76
2022/10/31 03:18:18;;;;;;;12.75;7.10;;;12.90;83.30;;;;;;5028248;28;20346;-76
2022/10/31 03:20:50;;;;;;;13.48;7.72;;;12.90;83.30;;;;;;5017652;28;20080;-76
2022/10/31 03:23:20;;;;;;;14.53;7.50;;;12.90;83.30;;;;;;5034443;28;20046;-76
2022/10/31 03:25:52;;;;;;;11.85;7.47;;;12.90;83.30;;;;;;5036972;28;20073;-76
2022/10/31 03:28:26;;;;;;;13.40;7.63;;;12.80;83.30;;;;;;5054323;28;20053;-76
2022/10/31 03:30:54;;;;;;;14.70;6.95;;;12.80;83.30;;;;;;5054106;28;20084;-76
2022/10/31 03:33:29;;;;;;;13.57;7.90;;;12.80;83.30;;;;;;5038664;28;20056;-75
2022/10/31 03:36:00;;;;;;;12.63;7.30;;;12.80;83.30;;;;;;5039578;28;20045;-76
2022/10/31 03:38:28;;;;;;;12.68;7.03;;;12.80;83.40;;;;;;5054466;28;20056;-76
2022/10/31 03:40:58;;;;;;;12.50;6.38;;;12.80;83.30;;;;;;5036306;28;20140;-76
2022/10/31 03:43:33;;;;;;;9.43;5.35;;;12.70;83.20;;;;;;5054402;28;20060;-76
2022/10/31 03:46:01;;;;;;;11.13;6.05;;;12.80;83.30;;;;;;5053629;28;20052;-76
2022/10/31 03:48:29;;;;;;;10.47;5.30;;;12.70;83.20;;;;;;5053801;28;20053;-76
2022/10/31 03:51:05;;;;;;;9.75;5.38;;;12.80;83.20;;;;;;5081767;28;20132;-75
2022/10/31 03:53:39;;;;;;;9.27;5.22;;;12.80;83.00;;;;;;5033759;28;20427;-76
2022/10/31 03:56:11;;;;;;;8.10;4.43;;;12.80;82.90;;;;;;5017337;28;20557;-76
2022/10/31 03:58:47;;;;;;;7.53;3.83;;;12.70;82.90;;;;;;5028454;28;20525;-76
2022/10/31 04:01:19;;;;;;;7.57;4.10;;;12.70;82.70;;;;;;5070579;28;20052;-75
2022/10/31 04:03:49;;;;;;;7.50;4.30;;;12.80;82.50;;;;;;5037232;28;20100;-76
2022/10/31 04:06:19;;;;;;;10.30;5.45;;;12.80;82.20;;;;;;5032245;28;20431;-76
2022/10/31 04:08:52;;;;;;;8.15;3.60;;;12.70;82.00;;;;;;5017410;28;20069;-76
2022/10/31 04:11:25;;;;;;;5.22;2.42;;;12.70;81.80;;;;;;5034167;28;20049;-75
2022/10/31 04:14:28;;;;;;;4.53;2.70;;;12.70;81.60;;;;;;5016318;28;20057;-75
2022/10/31 04:16:56;;;;;;;6.47;3.35;;;12.70;81.30;;;;;;5017366;28;20041;-76
2022/10/31 04:19:35;;;;;;;5.10;3.13;;;12.60;81.30;;;;;;5036675;28;20272;-76
2022/10/31 04:22:02;;;;;;;6.20;3.15;;;12.60;81.30;;;;;;5053767;28;20198;-75
2022/10/31 04:24:29;;;;;;;9.20;3.38;;;12.60;81.20;;;;;;5081000;28;20044;-76
2022/10/31 04:26:56;;;;;;;6.63;3.30;;;12.60;81.10;;;;;;5017011;28;20049;-75
2022/10/31 04:29:24;;;;;;;7.82;3.00;;;12.50;80.90;;;;;;5016719;28;20451;-76
2022/10/31 04:31:51;;;;;;;6.40;3.08;;;12.50;80.70;;;;;;5017532;28;20050;-75
2022/10/31 04:34:18;;;;;;;5.35;2.50;;;12.50;80.50;;;;;;5055281;28;20091;-76
2022/10/31 04:36:46;;;;;;;5.35;2.58;;;12.50;80.30;;;;;;5033421;28;20605;-76
2022/10/31 04:39:16;;;;;;;5.03;2.20;;;12.50;80.20;;;;;;5033614;28;20081;-76
2022/10/31 04:42:03;;;;;;;6.50;3.13;;;12.50;80.20;;;;;;5049204;28;20054;-76
2022/10/31 04:44:30;;;;;;;9.70;4.20;;;12.50;80.00;;;;;;5017074;28;20539;-76
2022/10/31 04:47:00;;;;;;;6.25;3.20;;;12.50;80.00;;;;;;5033379;28;20053;-76
2022/10/31 04:49:27;;;;;;;5.28;2.80;;;12.50;80.00;;;;;;5041382;28;20050;-76
2022/10/31 04:51:56;;;;;;;5.30;3.00;;;12.40;80.10;;;;;;5049451;28;20704;-76
2022/10/31 04:54:23;;;;;;;8.07;2.70;;;12.40;80.00;;;;;;5033071;28;20041;-76
2022/10/31 04:57:08;;;;;;;6.25;3.00;;;12.40;79.90;;;;;;5049843;28;20545;-75
2022/10/31 04:59:35;;;;;;;4.00;2.22;;;12.30;79.70;;;;;;5056223;28;20052;-76
2022/10/31 05:02:04;;;;;;;4.05;2.10;;;12.30;79.60;;;;;;5056569;28;20040;-76
2022/10/31 05:04:57;;;;;;;6.17;2.23;;;12.30;79.50;;;;;;5082404;28;20059;-75
2022/10/31 05:07:25;;;;;;;4.00;2.28;;;12.30;79.20;;;;;;5033031;28;20136;-76
2022/10/31 05:09:52;;;;;;;4.55;2.40;;;12.30;79.10;;;;;;5032723;28;20099;-75
2022/10/31 05:12:20;;;;;;;4.22;2.15;;;12.20;79.00;;;;;;5049398;28;20148;-76
2022/10/31 05:15:07;;;;;;;4.63;2.30;;;12.20;78.90;;;;;;5071054;28;20479;-76
2022/10/31 05:17:53;;;;;;;3.83;1.80;;;12.20;78.90;;;;;;5072772;28;20532;-75
2022/10/31 05:20:39;;;;;;;3.65;1.75;;;12.20;78.80;;;;;;5072387;28;20443;-76
2022/10/31 05:23:27;;;;;;;3.50;2.05;;;12.10;78.60;;;;;;5058806;28;20065;-76
2022/10/31 05:25:55;;;;;;;6.60;2.33;;;12.10;78.70;;;;;;5032631;28;20077;-75
2022/10/31 05:28:22;;;;;;;8.57;2.60;;;12.10;78.40;;;;;;5031542;28;20046;-76
2022/10/31 05:30:50;;;;;;;4.60;2.13;;;12.00;78.20;;;;;;5032310;28;20052;-76
2022/10/31 05:33:17;;;;;;;4.55;2.33;;;11.90;78.40;;;;;;5067309;28;20055;-75
2022/10/31 05:36:03;;;;;;;5.18;1.85;;;11.90;78.70;;;;;;5071999;28;20051;-76
2022/10/31 05:38:43;;;;;;;3.72;1.80;;;11.80;78.80;;;;;;5049117;28;20088;-76
2022/10/31 05:41:21;;;;;;;4.00;2.03;;;11.80;78.70;;;;;;5032522;28;20050;-75
2022/10/31 05:43:48;;;;;;;2.83;0.90;;;11.70;78.90;;;;;;5032677;28;20087;-75
2022/10/31 05:46:18;;;;;;;3.00;1.20;;;11.70;78.50;;;;;;5032596;28;20043;-75
2022/10/31 05:49:18;;;;;;;4.80;1.67;;;11.70;78.40;;;;;;5073075;28;20067;-76
2022/10/31 05:52:07;;;;;;;5.43;2.15;;;11.60;78.70;;;;;;5071571;28;20524;-76
2022/10/31 05:54:50;;;;;;;7.40;2.20;;;11.60;78.70;;;;;;5056111;28;20055;-75
2022/10/31 05:57:18;;;;;;;11.90;2.80;;;11.50;78.70;;;;;;5037147;28;20060;-76
2022/10/31 05:59:44;;;;;;;6.38;2.40;;;11.50;78.60;;;;;;5051971;28;20152;-76
2022/10/31 06:02:12;;;;;;;4.97;2.25;;;11.50;78.70;;;;;;5080916;28;20056;-76
2022/10/31 06:05:14;;;;;;;7.22;1.80;;;11.50;78.80;;;;;;5046934;28;20522;-75
2022/10/31 06:07:42;;;;;;;4.80;1.60;;;11.50;78.80;;;;;;5046725;28;20434;-76
2022/10/31 06:10:10;;;;;;;3.40;1.43;;;11.40;78.50;;;;;;5054737;28;20585;-76
2022/10/31 06:12:40;;;;;;;3.53;1.60;;;11.40;78.40;;;;;;5046720;28;20063;-76
2022/10/31 06:15:36;;;;;;;4.30;1.90;;;11.30;78.70;;;;;;5031583;28;20049;-76
2022/10/31 06:18:05;;;;;;;3.67;1.73;;;11.30;78.80;;;;;;5031674;28;20046;-76
2022/10/31 06:20:36;;;;;;;4.18;1.60;;;11.30;78.70;;;;;;5028519;28;20112;-76
2022/10/31 06:23:04;;;;;;;4.87;1.80;;;11.20;78.80;;;;;;5071236;28;20410;-76
2022/10/31 06:25:34;;;;;;;4.90;2.00;;;11.20;78.70;;;;;;5071699;28;20568;-76
2022/10/31 06:28:01;;;;;;;5.97;1.70;;;11.20;78.40;;;;;;5071650;28;20072;-76
2022/10/31 06:30:46;;;;;;;5.18;1.80;;;11.10;78.10;;;;;;5041279;28;20415;-76
2022/10/31 06:33:13;;;;;;;5.55;2.28;;;11.10;78.30;;;;;;5051471;28;20049;-76
2022/10/31 06:35:47;;;;;;;6.33;1.73;;;11.00;78.60;;;;;;5048037;28;20052;-76
2022/10/31 06:38:14;;;;;;;4.43;1.98;;;11.00;78.60;;;;;;5030435;28;20045;-76
2022/10/31 06:40:44;;;;;;;6.00;2.50;;;11.00;78.50;;;;;;5056872;28;20055;-76
2022/10/31 06:43:23;;;;;;;5.45;2.70;;;10.90;78.40;;;;;;5058382;28;20680;-75
2022/10/31 06:45:56;;;;;;;4.90;2.80;;;10.90;78.40;;;;;;5074981;28;20384;-76
2022/10/31 06:48:46;;;;;;;6.57;3.10;;;10.80;78.60;;;;;;5054944;28;20049;-76
2022/10/31 06:51:21;;;;;;;6.82;2.88;;;10.70;78.90;;;;;;5036848;28;20103;-76
2022/10/31 06:53:50;;;;;;;7.72;3.20;;;10.70;79.00;;;;;;5052111;28;20596;-76
2022/10/31 06:56:19;;;;;;;6.60;2.17;;;10.70;79.30;;;;;;5054971;28;20048;-77
2022/10/31 06:58:53;;;;;;;5.55;2.20;;;10.70;79.20;;;;;;5034760;28;20045;-76
2022/10/31 07:01:32;;;;;;;5.10;2.53;;;10.70;79.20;;;;;;5050626;28;20048;-76
2022/10/31 07:04:01;;;;;;;9.40;2.60;;;10.60;79.10;;;;;;5071128;28;20055;-76
2022/10/31 07:06:32;;;;;;;7.47;2.80;;;10.60;79.20;;;;;;5043800;28;20494;-76
2022/10/31 07:08:59;;;;;;;9.68;3.17;;;10.60;79.30;;;;;;5061577;28;20096;-76
2022/10/31 07:11:28;;;;;;;5.05;3.20;;;10.60;79.40;;;;;;5065194;28;20495;-76
2022/10/31 07:13:57;;;;;;;6.60;3.30;;;10.60;79.70;;;;;;5045415;28;20049;-76
2022/10/31 07:16:24;;;;;;;5.70;3.60;;;10.60;79.70;;;;;;5062406;28;20041;-76
2022/10/31 07:18:51;;;;;;;7.75;3.63;;;10.50;79.80;;;;;;5039061;28;20092;-76
2022/10/31 07:21:18;;;;;;;5.43;3.47;;;10.50;79.90;;;;;;5033551;28;20511;-76
2022/10/31 07:23:48;;;;;;;6.50;3.70;;;10.50;80.00;;;;;;5045528;28;20139;-76
2022/10/31 07:26:37;;;;;;;5.80;3.70;;;10.50;80.10;;;;;;5057101;28;20056;-76
2022/10/31 07:29:04;;;;;;;7.03;4.10;;;10.50;80.20;;;;;;5056971;28;20045;-76
2022/10/31 07:31:30;;;;;;;8.02;4.65;;;10.50;80.20;;;;;;5057193;28;20045;-75
2022/10/31 07:34:04;;;;;;;9.35;5.43;;;10.60;80.40;;;;;;5053752;28;20201;-76
2022/10/31 07:36:51;;;;;;;8.23;5.50;;;10.50;80.60;;;;;;5050681;28;20052;-75
2022/10/31 07:39:19;;;;;;;9.30;6.07;;;10.50;80.80;;;;;;5051147;28;20072;-75
2022/10/31 07:41:47;;;;;;;10.70;6.78;;;10.50;81.10;;;;;;5070865;28;20104;-75
2022/10/31 07:44:18;;;;;;;9.20;6.30;;;10.50;81.50;;;;;;5069551;28;20052;-75
2022/10/31 07:47:12;;;;;;;12.27;7.30;;;10.50;82.00;;;;;;5035979;28;20048;-76
2022/10/31 07:49:58;;;;;;;12.43;7.78;;;10.50;82.30;;;;;;5073338;28;20116;-75
2022/10/31 07:52:43;;;;;;;11.53;7.80;;;10.50;82.40;;;;;;5068264;28;20057;-76
2022/10/31 07:55:43;;;;;;;11.98;7.25;;;10.50;82.80;;;;;;5032498;28;20049;-77
2022/10/31 07:58:13;;;;;;;11.80;7.50;;;10.60;83.10;;;;;;5033515;28;20632;-76
2022/10/31 08:00:43;;;;;;;12.32;7.82;;;10.60;83.30;;;;;;5050503;28;20482;-77
2022/10/31 08:03:14;;;;;;;12.38;7.22;;;10.60;83.70;;;;;;5046960;28;20045;-76
2022/10/31 08:06:00;;;;;;;14.97;8.17;;;10.60;83.90;;;;;;5071571;28;20162;-75
2022/10/31 08:08:43;;;;;;;12.38;8.15;;;10.60;84.20;;;;;;5069941;28;20060;-76
2022/10/31 08:11:10;;;;;;;15.02;9.15;;;10.60;84.30;;;;;;5068509;28;20045;-76
2022/10/31 08:13:42;;;;;;;14.30;8.65;;;10.70;84.50;;;;;;5046796;28;20052;-76
2022/10/31 08:16:12;;;;;;;13.10;8.50;;;10.70;84.50;;;;;;5052684;28;20041;-76
2022/10/31 08:18:50;;;;;;;12.80;8.50;;;10.70;84.70;;;;;;5052773;28;20052;-76
2022/10/31 08:21:18;;;;;;;11.48;7.95;;;10.70;84.70;;;;;;5046487;28;20522;-76
2022/10/31 08:23:46;;;;;;;11.68;8.07;;;10.70;85.00;;;;;;5056286;28;20551;-76
2022/10/31 08:26:14;;;;;;;14.07;8.38;;;10.80;85.20;;;;;;5055918;28;20045;-76
2022/10/31 08:28:43;;;;;;;14.18;8.20;;;10.80;85.20;;;;;;5091226;28;20159;-76
2022/10/31 08:31:10;;;;;;;17.93;9.07;;;10.80;85.50;;;;;;5034490;28;20042;-76
2022/10/31 08:33:40;;;;;;;14.90;9.00;;;10.80;85.70;;;;;;5050566;28;20438;-76
2022/10/31 08:36:19;;;;;;;13.93;9.05;;;10.80;85.60;;;;;;5068024;28;20548;-77
2022/10/31 08:39:04;;;;;;;17.25;8.77;;;10.90;85.70;;;;;;5051919;28;20052;-77
2022/10/31 08:41:32;;;;;;;16.23;9.77;;;10.90;85.90;;;;;;5067970;28;20621;-77
2022/10/31 08:44:02;;;;;;;17.23;9.57;;;10.90;86.10;;;;;;5051005;28;20078;-77
2022/10/31 08:46:28;;;;;;;15.30;10.05;;;10.90;86.20;;;;;;5064780;28;20160;-78
2022/10/31 08:48:55;;;;;;;15.88;10.35;;;11.00;86.40;;;;;;5048188;28;20049;-77
2022/10/31 08:51:23;;;;;;;15.95;9.93;;;11.00;86.50;;;;;;5033707;28;20099;-78
2022/10/31 08:53:53;;;;;;;16.08;10.63;;;11.10;86.80;;;;;;5050611;28;20503;-77
2022/10/31 08:56:40;;;;;;;18.33;10.67;;;11.10;87.00;;;;;;5065342;28;20056;-77
2022/10/31 08:59:23;;;;;;;17.40;10.30;;;11.10;87.10;;;;;;5048207;28;20049;-77
2022/10/31 09:02:10;;;;;;;16.45;10.77;;;11.10;87.20;;;;;;5047609;28;20053;-77
2022/10/31 09:04:38;;;;;;;18.48;11.65;;;11.30;87.30;;;;;;5034644;28;20597;-77
2022/10/31 09:07:05;;;;;;;19.98;11.85;;;11.30;87.20;;;;;;5032779;28;20084;-77
2022/10/31 09:09:32;;;;;;;20.73;12.17;;;11.40;87.20;;;;;;5031979;28;20145;-76
2022/10/31 09:11:59;;;;;;;18.45;11.60;;;11.40;87.30;;;;;;5050798;28;20073;-78
2022/10/31 09:14:53;;;;;;;21.05;13.02;;;11.50;87.40;;;;;;5045058;28;20056;-78
2022/10/31 09:17:26;;;;;;;20.42;12.60;;;11.50;87.50;;;;;;5035730;28;20107;-78
2022/10/31 09:20:13;;;;;;;23.38;12.75;;;11.50;87.60;;;;;;5069380;28;20053;-78
2022/10/31 09:22:40;;;;;;;24.00;13.93;;;11.50;87.70;;;;;;5067114;28;20514;-78
2022/10/31 09:25:08;;;;;;;23.55;12.98;;;11.60;87.60;;;;;;5049038;28;20049;-78
2022/10/31 09:27:35;;;;;;;22.70;13.73;;;11.70;87.80;;;;;;5051990;28;20148;-76
2022/10/31 09:30:05;;;;;;;24.48;13.63;;;11.70;87.90;;;;;;5069454;28;20127;-76
2022/10/31 09:32:33;;;;;;;23.75;13.95;;;11.70;87.80;;;;;;5035112;28;20128;-76
2022/10/31 09:35:00;;;;;;;20.90;12.97;;;11.80;88.00;;;;;;5032121;28;20044;-77
2022/10/31 09:37:28;;;;;;;25.80;14.50;;;11.90;88.00;;;;;;5032388;28;20053;-77
2022/10/31 09:39:55;;;;;;;22.55;13.48;;;11.90;87.90;;;;;;5046633;28;20498;-77
2022/10/31 09:42:48;;;;;;;22.35;13.48;;;11.90;87.90;;;;;;5035359;28;20048;-76
2022/10/31 09:45:29;;;;;;;22.30;12.80;;;12.00;88.00;;;;;;5068083;28;20140;-76
2022/10/31 09:48:16;;;;;;;21.00;13.03;;;12.00;88.00;;;;;;5065861;28;20503;-77
2022/10/31 09:51:13;;;;;;;23.00;13.95;;;12.00;88.00;;;;;;5046410;28;20108;-77
2022/10/31 09:53:54;;;;;;;22.35;13.70;;;12.10;88.00;;;;;;5033470;28;20553;-77
2022/10/31 09:56:24;;;;;;;25.63;13.93;;;12.10;88.10;;;;;;5029578;28;20136;-77
2022/10/31 09:58:55;;;;;;;23.45;13.88;;;12.20;88.20;;;;;;5014859;28;20045;-77
2022/10/31 10:01:43;;;;;;;21.27;13.80;;;12.30;88.20;;;;;;5031339;28;20479;-77
2022/10/31 10:04:25;;;;;;;26.77;15.18;;;12.30;88.20;;;;;;5015211;28;20053;-77
2022/10/31 10:07:07;;;;;;;24.83;14.38;;;12.40;88.00;;;;;;5030005;28;20522;-76
2022/10/31 10:09:57;;;;;;;23.85;14.07;;;12.50;88.00;;;;;;5050878;28;20080;-77
2022/10/31 10:12:43;;;;;;;25.33;15.00;;;12.50;87.90;;;;;;5050946;28;20582;-77
2022/10/31 10:15:28;;;;;;;24.27;14.37;;;12.50;87.80;;;;;;5049391;28;20625;-77
2022/10/31 10:18:05;;;;;;;22.90;14.13;;;12.50;87.80;;;;;;5034038;28;20080;-77
2022/10/31 10:20:38;;;;;;;20.80;14.05;;;12.50;87.90;;;;;;5049225;28;20053;-77
2022/10/31 10:23:22;;;;;;;25.33;14.80;;;12.70;87.90;;;;;;5051780;28;20063;-75
2022/10/31 10:25:56;;;;;;;23.10;14.32;;;12.70;87.90;;;;;;5049421;28;20056;-75
2022/10/31 10:28:28;;;;;;;26.63;15.97;;;12.70;88.20;;;;;;5049481;28;20427;-75
2022/10/31 10:31:00;;;;;;;25.70;15.40;;;12.80;88.00;;;;;;5048320;28;20045;-76
2022/10/31 10:33:34;;;;;;;27.00;15.88;;;12.80;88.10;;;;;;5050266;28;20116;-76
2022/10/31 10:36:04;;;;;;;25.95;15.20;;;12.90;88.20;;;;;;5068640;28;20053;-76
2022/10/31 10:38:37;;;;;;;23.92;15.20;;;13.00;88.40;;;;;;5051044;28;20149;-76
2022/10/31 10:41:10;;;;;;;24.93;15.30;;;13.00;88.40;;;;;;5050732;28;20056;-76
2022/10/31 10:43:37;;;;;;;22.10;13.70;;;13.10;88.60;;;;;;5050747;28;20087;-76
2022/10/31 10:49:15;;;;;;;22.48;13.38;;;13.30;88.70;;;;;;5062664;28;20041;-75
2022/10/31 10:51:46;;;;;;;20.17;11.60;;;13.30;88.70;;;;;;5046693;28;20128;-75
2022/10/31 10:54:43;;;;;;;20.80;12.30;;;13.50;88.70;;;;;;5042159;28;20057;-75
2022/10/31 10:57:46;;;;;;;21.55;11.80;;;13.50;88.80;;;;;;5050279;28;20628;-75
2022/10/31 11:00:20;;;;;;;19.75;11.02;;;13.70;88.70;;;;;;5048008;28;20487;-74
2022/10/31 11:02:48;;;;;;;16.45;10.43;;;13.80;88.60;;;;;;5050772;28;20460;-74
2022/10/31 11:05:31;;;;;;;14.82;8.57;;;13.90;88.50;;;;;;5069084;28;20060;-74
2022/10/31 11:07:58;;;;;;;16.60;9.30;;;14.00;88.50;;;;;;5048072;28;20045;-74
2022/10/31 11:10:25;;;;;;;16.42;8.60;;;14.10;88.40;;;;;;5047456;28;20057;-75
2022/10/31 11:13:03;;;;;;;15.43;8.02;;;14.10;88.20;;;;;;5068616;28;20049;-74
2022/10/31 11:15:34;;;;;;;16.35;8.13;;;14.20;88.10;;;;;;5067458;28;20444;-74
2022/10/31 11:18:02;;;;;;;18.33;10.15;;;14.30;88.00;;;;;;5043727;28;20077;-74
2022/10/31 11:20:36;;;;;;;17.77;9.47;;;14.30;87.80;;;;;;5049797;28;20510;-74
2022/10/31 11:23:11;;;;;;;15.35;8.32;;;14.40;87.70;;;;;;5050747;28;20604;-74
2022/10/31 11:25:38;;;;;;;14.80;9.15;;;14.40;87.50;;;;;;5049148;28;20099;-76
2022/10/31 11:28:09;;;;;;;18.98;9.40;;;14.50;87.50;;;;;;5072425;28;20075;-76
2022/10/31 11:30:44;;;;;;;16.88;9.00;;;14.50;87.30;;;;;;5057554;28;20456;-76
2022/10/31 11:33:20;;;;;;;16.70;9.37;;;14.60;87.20;;;;;;5061579;28;20055;-76
2022/10/31 11:35:49;;;;;;;14.85;9.13;;;14.60;87.10;;;;;;5072295;28;20348;-76
2022/10/31 11:38:20;;;;;;;16.25;8.90;;;14.70;86.90;;;;;;5052406;28;20767;-76
2022/10/31 11:40:59;;;;;;;18.00;9.23;;;14.70;86.70;;;;;;5067513;28;20052;-76
2022/10/31 11:43:27;;;;;;;15.23;7.90;;;14.70;86.70;;;;;;5068278;28;20139;-76
2022/10/31 11:45:54;;;;;;;15.23;8.20;;;14.80;86.20;;;;;;5049656;28;20057;-76
2022/10/31 11:48:23;;;;;;;14.32;7.85;;;14.80;86.00;;;;;;5070769;28;20506;-77
2022/10/31 11:50:55;;;;;;;15.85;8.38;;;14.80;86.00;;;;;;5052272;28;20088;-75
2022/10/31 11:53:27;;;;;;;14.52;8.20;;;14.80;86.00;;;;;;5070821;28;20052;-76
2022/10/31 11:56:07;;;;;;;16.58;8.45;;;14.90;85.90;;;;;;5050549;28;20057;-75
2022/10/31 11:58:34;;;;;;;14.87;7.07;;;14.90;85.90;;;;;;5049395;28;20578;-75
2022/10/31 12:01:01;;;;;;;14.43;7.25;;;15.00;86.00;;;;;;5066395;28;20499;-76
2022/10/31 12:03:52;;;;;;;14.52;7.57;;;15.00;85.80;;;;;;5071305;28;20378;-76
2022/10/31 12:06:25;;;;;;;14.23;7.25;;;15.00;85.70;;;;;;5053209;28;20128;-76
2022/10/31 12:08:52;;;;;;;15.85;7.68;;;15.00;85.80;;;;;;5052649;28;20049;-76
2022/10/31 12:11:43;;;;;;;15.57;6.93;;;15.00;85.70;;;;;;5071582;28;20601;-76
2022/10/31 12:14:38;;;;;;;14.15;7.50;;;15.10;85.50;;;;;;5072080;28;20691;-76
2022/10/31 12:17:14;;;;;;;14.40;7.40;;;15.20;85.50;;;;;;5070289;28;20049;-76
2022/10/31 12:19:45;;;;;;;14.93;6.70;;;15.20;85.30;;;;;;5051591;28;20052;-76
2022/10/31 12:22:23;;;;;;;15.10;7.18;;;15.20;85.30;;;;;;5051875;28;20501;-76
2022/10/31 12:25:08;;;;;;;14.87;6.53;;;15.30;85.00;;;;;;5070415;28;20061;-76
2022/10/31 12:27:51;;;;;;;12.68;6.20;;;15.30;84.80;;;;;;5069786;28;20057;-75
2022/10/31 12:30:21;;;;;;;12.05;6.20;;;15.30;84.40;;;;;;5069078;28;20053;-76
2022/10/31 12:33:04;;;;;;;13.38;5.90;;;15.30;84.30;;;;;;5052283;28;20045;-76
2022/10/31 12:35:47;;;;;;;12.57;6.10;;;15.30;84.10;;;;;;5046002;28;20119;-76
2022/10/31 12:38:39;;;;;;;12.40;6.17;;;15.30;83.90;;;;;;5066986;28;20482;-76
2022/10/31 12:41:25;;;;;;;14.23;6.45;;;15.40;83.90;;;;;;5066816;28;20620;-75
2022/10/31 12:43:59;;;;;;;15.60;7.05;;;15.40;83.90;;;;;;5031627;28;20056;-77
2022/10/31 12:46:39;;;;;;;16.75;7.50;;;15.40;83.90;;;;;;5066492;28;20111;-76
2022/10/31 12:49:28;;;;;;;16.20;7.65;;;15.40;83.80;;;;;;5051270;28;20127;-76
2022/10/31 12:52:09;;;;;;;14.80;7.07;;;15.40;83.70;;;;;;5068028;28;20515;-76
2022/10/31 12:54:59;;;;;;;14.57;7.35;;;15.40;83.50;;;;;;5068188;28;20080;-76
2022/10/31 12:57:33;;;;;;;15.35;7.60;;;15.40;83.40;;;;;;5049158;28;20491;-77
2022/10/31 13:00:04;;;;;;;13.27;6.90;;;15.50;83.40;;;;;;5070715;28;20175;-76
2022/10/31 13:02:36;;;;;;;15.10;7.18;;;15.50;83.40;;;;;;5064703;28;20594;-76
2022/10/31 13:05:06;;;;;;;14.67;7.50;;;15.50;83.40;;;;;;5069976;28;20049;-76
2022/10/31 13:07:38;;;;;;;15.63;7.63;;;15.50;83.40;;;;;;5052029;28;20045;-76
2022/10/31 13:10:16;;;;;;;16.10;7.25;;;15.50;83.40;;;;;;5050146;28;20064;-76
2022/10/31 13:12:44;;;;;;;13.70;7.30;;;15.60;83.30;;;;;;5038828;28;20050;-76
2022/10/31 13:15:18;;;;;;;13.32;6.57;;;15.60;83.30;;;;;;5050085;28;20054;-76